createdAt,value
2017-10-16T00:00:58.436Z,10.77
2017-10-16T00:03:25.841Z,11.40
2017-10-16T00:05:53.230Z,11.10
2017-10-16T00:08:20.684Z,10.10
2017-10-16T00:10:48.078Z,11.80
2017-10-16T00:13:15.485Z,11.47
2017-10-16T00:15:42.880Z,11.53
2017-10-16T00:18:10.270Z,10.43
2017-10-16T00:20:37.665Z,11.43
2017-10-16T00:23:05.143Z,10.33
2017-10-16T00:25:32.540Z,10.30
2017-10-16T00:27:59.947Z,10.50
2017-10-16T00:30:27.338Z,11.03
2017-10-16T00:32:54.764Z,10.47
2017-10-16T00:35:22.160Z,11.03
2017-10-16T00:37:49.676Z,10.30
2017-10-16T00:40:17.072Z,10.93
2017-10-16T00:42:44.457Z,11.27
2017-10-16T00:45:11.859Z,10.97
2017-10-16T00:47:39.258Z,10.40
2017-10-16T00:50:06.653Z,11.03
2017-10-16T00:52:34.042Z,11.30
2017-10-16T00:55:01.446Z,11.07
2017-10-16T00:57:28.847Z,10.87
2017-10-16T00:59:56.247Z,11.43
2017-10-16T01:02:23.730Z,9.50
2017-10-16T01:04:51.122Z,11.30
2017-10-16T01:07:18.520Z,11.60
2017-10-16T01:09:45.919Z,11.30
2017-10-16T01:12:13.354Z,12.47
2017-10-16T01:14:40.755Z,12.53
2017-10-16T01:17:08.166Z,12.97
2017-10-16T01:19:35.566Z,12.40
2017-10-16T01:22:02.959Z,11.50
2017-10-16T01:24:30.358Z,11.90
2017-10-16T01:26:57.758Z,12.00
2017-10-16T01:29:25.186Z,14.03
2017-10-16T01:31:52.583Z,12.60
2017-10-16T01:34:19.990Z,12.57
2017-10-16T01:36:47.390Z,13.27
2017-10-16T01:39:14.871Z,12.93
2017-10-16T01:41:42.275Z,11.80
2017-10-16T01:44:09.774Z,12.73
2017-10-16T01:46:37.171Z,11.43
2017-10-16T01:49:04.565Z,11.70
2017-10-16T01:51:31.968Z,11.10
2017-10-16T01:53:59.399Z,11.70
2017-10-16T01:56:26.850Z,13.33
2017-10-16T01:58:54.249Z,11.73
2017-10-16T02:01:21.667Z,12.13
2017-10-16T02:03:49.050Z,14.00
2017-10-16T02:06:16.445Z,13.80
2017-10-16T02:08:43.849Z,13.07
2017-10-16T02:11:11.266Z,12.10
2017-10-16T02:13:38.670Z,12.40
2017-10-16T02:16:06.071Z,13.60
2017-10-16T02:18:33.464Z,12.10
2017-10-16T02:21:00.915Z,12.53
2017-10-16T02:23:28.304Z,14.20
2017-10-16T02:25:55.707Z,12.90
2017-10-16T02:28:23.099Z,13.80
2017-10-16T02:30:50.520Z,13.90
2017-10-16T02:33:17.911Z,14.40
2017-10-16T02:35:45.297Z,12.97
2017-10-16T02:38:12.696Z,14.13
2017-10-16T02:40:39.373Z,13.70
2017-10-16T02:43:06.768Z,14.03
2017-10-16T02:45:34.165Z,13.77
2017-10-16T02:48:01.558Z,13.93
2017-10-16T02:50:28.946Z,13.63
2017-10-16T02:52:56.360Z,15.03
2017-10-16T02:55:23.748Z,14.50
2017-10-16T02:57:51.142Z,14.20
2017-10-16T03:00:18.538Z,12.67
2017-10-16T03:02:45.937Z,14.20
2017-10-16T03:05:13.335Z,12.50
2017-10-16T03:07:40.743Z,13.90
2017-10-16T03:10:08.140Z,14.23
2017-10-16T03:12:35.543Z,14.90
2017-10-16T03:15:02.936Z,13.00
2017-10-16T03:17:36.985Z,14.80
2017-10-16T03:20:04.376Z,15.30
2017-10-16T03:22:31.843Z,15.47
2017-10-16T03:24:59.237Z,15.23
2017-10-16T03:27:26.635Z,15.17
2017-10-16T03:29:54.035Z,15.20
2017-10-16T03:32:21.431Z,14.27
2017-10-16T03:34:48.829Z,14.10
2017-10-16T03:37:16.214Z,14.63
2017-10-16T03:39:43.747Z,14.30
2017-10-16T03:42:11.134Z,15.50
2017-10-16T03:44:38.539Z,14.27
2017-10-16T03:47:05.926Z,15.43
2017-10-16T03:49:33.332Z,14.40
2017-10-16T03:52:00.806Z,15.90
2017-10-16T03:54:28.215Z,15.60
2017-10-16T03:56:55.723Z,15.60
2017-10-16T03:59:23.126Z,14.53
2017-10-16T04:01:50.627Z,15.00
2017-10-16T04:04:18.022Z,14.67
2017-10-16T04:06:45.410Z,15.77
2017-10-16T04:09:12.814Z,15.73
2017-10-16T04:11:40.207Z,16.27
2017-10-16T04:14:07.601Z,15.67
2017-10-16T04:16:35.004Z,14.07
2017-10-16T04:19:02.420Z,15.23
2017-10-16T04:21:29.828Z,15.60
2017-10-16T04:23:57.231Z,14.00
2017-10-16T04:26:24.620Z,15.00
2017-10-16T04:28:52.006Z,14.30
2017-10-16T04:31:19.415Z,15.90
2017-10-16T04:33:46.840Z,14.80
2017-10-16T04:36:14.217Z,14.27
2017-10-16T04:38:41.606Z,15.37
2017-10-16T04:41:09.025Z,14.63
2017-10-16T04:43:36.423Z,18.30
2017-10-16T04:46:03.822Z,14.40
2017-10-16T04:48:31.223Z,15.63
2017-10-16T04:50:58.636Z,14.63
2017-10-16T04:53:26.019Z,15.00
2017-10-16T04:55:53.424Z,14.90
2017-10-16T04:58:20.838Z,14.03
2017-10-16T05:00:48.258Z,14.57
2017-10-16T05:03:15.650Z,15.67
2017-10-16T05:05:43.070Z,15.50
2017-10-16T05:08:10.467Z,16.03
2017-10-16T05:10:37.863Z,15.43
2017-10-16T05:13:05.341Z,16.10
2017-10-16T05:15:32.731Z,17.37
2017-10-16T05:18:00.167Z,16.30
2017-10-16T05:20:27.546Z,16.93
2017-10-16T05:22:54.969Z,17.70
2017-10-16T05:25:22.374Z,15.70
2017-10-16T05:27:49.874Z,16.60
2017-10-16T05:30:17.267Z,18.60
2017-10-16T05:32:44.670Z,15.10
2017-10-16T05:35:12.068Z,14.37
2017-10-16T05:37:39.467Z,16.07
2017-10-16T05:40:06.859Z,14.37
2017-10-16T05:42:34.262Z,16.00
2017-10-16T05:45:01.763Z,14.87
2017-10-16T05:47:29.180Z,17.60
2017-10-16T05:49:56.566Z,16.93
2017-10-16T05:52:23.954Z,16.57
2017-10-16T05:54:51.370Z,16.83
2017-10-16T05:57:18.838Z,16.50
2017-10-16T05:59:46.242Z,16.97
2017-10-16T06:02:13.654Z,16.70
2017-10-16T06:04:41.050Z,16.30
2017-10-16T06:07:08.443Z,16.90
2017-10-16T06:09:35.929Z,16.30
2017-10-16T06:12:03.323Z,15.43
2017-10-16T06:14:30.734Z,15.40
2017-10-16T06:16:58.126Z,14.30
2017-10-16T06:19:25.526Z,14.80
2017-10-16T06:21:52.994Z,15.23
2017-10-16T06:24:20.390Z,14.00
2017-10-16T06:26:47.783Z,14.67
2017-10-16T06:29:15.182Z,15.80
2017-10-16T06:31:42.574Z,14.07
2017-10-16T06:34:09.971Z,14.60
2017-10-16T06:36:37.368Z,13.43
2017-10-16T06:39:04.791Z,12.80
2017-10-16T06:41:32.199Z,14.07
2017-10-16T06:43:59.591Z,12.20
2017-10-16T06:46:27.019Z,13.37
2017-10-16T06:48:54.411Z,12.90
2017-10-16T06:51:21.815Z,11.43
2017-10-16T06:53:49.212Z,11.67
2017-10-16T06:56:16.631Z,13.50
2017-10-16T06:58:44.132Z,13.37
2017-10-16T07:01:11.536Z,12.20
2017-10-16T07:03:38.931Z,12.50
2017-10-16T07:06:06.328Z,11.37
2017-10-16T07:08:33.711Z,11.30
2017-10-16T07:11:01.112Z,11.57
2017-10-16T07:13:28.502Z,11.83
2017-10-16T07:15:55.898Z,11.90
2017-10-16T07:18:23.292Z,12.37
2017-10-16T07:20:50.730Z,11.30
2017-10-16T07:23:18.126Z,11.20
2017-10-16T07:25:45.538Z,11.70
2017-10-16T07:28:12.945Z,10.67
2017-10-16T07:30:40.342Z,10.80
2017-10-16T07:33:07.748Z,10.20
2017-10-16T07:35:35.172Z,11.43
2017-10-16T07:38:02.564Z,11.80
2017-10-16T07:40:29.959Z,10.70
2017-10-16T07:42:57.353Z,11.47
2017-10-16T07:45:24.755Z,10.83
2017-10-16T07:47:52.142Z,9.60
2017-10-16T07:50:19.534Z,10.13
2017-10-16T07:52:46.947Z,10.30
2017-10-16T07:55:14.335Z,10.30
2017-10-16T07:57:41.737Z,11.23
2017-10-16T08:00:09.127Z,10.20
2017-10-16T08:02:36.531Z,10.97
2017-10-16T08:05:03.929Z,10.50
2017-10-16T08:07:31.325Z,10.03
2017-10-16T08:09:58.724Z,10.77
2017-10-16T08:12:26.172Z,10.10
2017-10-16T08:14:53.563Z,10.33
2017-10-16T08:17:20.956Z,9.70
2017-10-16T08:19:48.355Z,9.37
2017-10-16T08:22:15.818Z,9.73
2017-10-16T08:24:43.202Z,9.97
2017-10-16T08:27:10.598Z,9.67
2017-10-16T08:29:37.999Z,10.60
2017-10-16T08:32:05.450Z,9.60
2017-10-16T08:34:32.843Z,10.10
2017-10-16T08:37:00.243Z,8.73
2017-10-16T08:39:27.635Z,10.30
2017-10-16T08:41:55.032Z,9.70
2017-10-16T08:44:22.423Z,9.50
2017-10-16T08:46:49.814Z,8.83
2017-10-16T08:49:17.207Z,9.57
2017-10-16T08:51:44.603Z,9.17
2017-10-16T08:54:11.996Z,10.13
2017-10-16T08:56:39.386Z,10.20
2017-10-16T08:59:06.780Z,8.57
2017-10-16T09:01:34.180Z,10.10
2017-10-16T09:04:01.585Z,9.20
2017-10-16T09:06:28.971Z,9.57
2017-10-16T09:08:56.376Z,8.67
2017-10-16T09:11:23.852Z,9.37
2017-10-16T09:13:51.298Z,9.43
2017-10-16T09:16:18.687Z,9.10
2017-10-16T09:18:46.087Z,9.00
2017-10-16T09:21:13.466Z,9.17
2017-10-16T09:23:40.866Z,9.83
2017-10-16T09:26:08.250Z,9.07
2017-10-16T09:28:35.642Z,9.03
2017-10-16T09:31:03.036Z,10.17
2017-10-16T09:33:30.435Z,8.53
2017-10-16T09:35:57.827Z,9.27
2017-10-16T09:38:25.258Z,9.07
2017-10-16T09:40:52.654Z,9.70
2017-10-16T09:43:20.043Z,9.37
2017-10-16T09:45:47.439Z,9.30
2017-10-16T09:48:14.893Z,8.27
2017-10-16T09:50:42.273Z,8.70
2017-10-16T09:53:09.671Z,8.70
2017-10-16T09:55:37.167Z,9.70
2017-10-16T09:58:04.558Z,8.43
2017-10-16T10:00:31.966Z,8.50
2017-10-16T10:02:59.359Z,9.87
2017-10-16T10:05:26.755Z,8.60
2017-10-16T10:07:54.146Z,8.80
2017-10-16T10:10:21.595Z,8.87
2017-10-16T10:12:48.982Z,9.23
2017-10-16T10:15:16.379Z,9.20
2017-10-16T10:17:43.762Z,8.13
2017-10-16T10:20:11.158Z,9.73
2017-10-16T10:22:38.541Z,9.70
2017-10-16T10:25:05.949Z,9.20
2017-10-16T10:27:33.331Z,9.57
2017-10-16T10:30:00.742Z,9.67
2017-10-16T10:32:28.207Z,10.40
2017-10-16T10:34:55.623Z,9.77
2017-10-16T10:37:22.995Z,10.27
2017-10-16T10:39:50.390Z,9.33
2017-10-16T10:42:17.790Z,11.90
2017-10-16T10:44:45.196Z,10.57
2017-10-16T10:47:12.644Z,9.80
2017-10-16T10:49:40.047Z,10.87
2017-10-16T10:52:07.438Z,10.73
2017-10-16T10:54:34.843Z,10.80
2017-10-16T10:57:02.248Z,9.37
2017-10-16T10:59:29.639Z,10.37
2017-10-16T11:01:57.038Z,9.30
2017-10-16T11:04:24.542Z,9.63
2017-10-16T11:06:51.987Z,10.50
2017-10-16T11:09:19.438Z,9.50
2017-10-16T11:11:46.838Z,9.63
2017-10-16T11:14:14.230Z,10.57
2017-10-16T11:16:41.635Z,10.10
2017-10-16T11:19:09.072Z,10.27
2017-10-16T11:21:36.483Z,10.23
2017-10-16T11:24:03.864Z,9.70
2017-10-16T11:26:31.257Z,9.10
2017-10-16T11:28:58.698Z,10.00
2017-10-16T11:31:26.174Z,9.77
2017-10-16T11:33:53.573Z,9.30
2017-10-16T11:36:20.967Z,8.60
2017-10-16T11:38:48.354Z,9.77
2017-10-16T11:41:15.760Z,9.03
2017-10-16T11:43:43.152Z,8.20
2017-10-16T11:46:10.542Z,9.80
2017-10-16T11:48:37.930Z,9.77
2017-10-16T11:51:05.322Z,8.53
2017-10-16T11:53:32.720Z,9.97
2017-10-16T11:56:00.111Z,9.40
2017-10-16T11:58:27.591Z,8.97
2017-10-16T12:00:55.024Z,9.00
2017-10-16T12:03:22.479Z,8.37
2017-10-16T12:05:49.870Z,9.60
2017-10-16T12:08:17.266Z,8.10
2017-10-16T12:10:44.758Z,7.97
2017-10-16T12:13:12.158Z,7.90
2017-10-16T12:15:39.550Z,8.27
2017-10-16T12:18:06.943Z,8.30
2017-10-16T12:20:34.341Z,8.30
2017-10-16T12:23:01.728Z,8.20
2017-10-16T12:25:29.186Z,8.40
2017-10-16T12:27:56.659Z,7.77
2017-10-16T12:30:24.046Z,8.40
2017-10-16T12:32:51.447Z,8.53
2017-10-16T12:35:18.909Z,7.30
2017-10-16T12:37:46.314Z,8.90
2017-10-16T12:40:13.722Z,8.03
2017-10-16T12:42:41.114Z,7.87
2017-10-16T12:45:08.534Z,7.80
2017-10-16T12:47:35.930Z,8.37
2017-10-16T12:50:03.319Z,8.27
2017-10-16T12:52:30.716Z,8.20
2017-10-16T12:54:58.099Z,8.27
2017-10-16T12:57:25.497Z,7.23
2017-10-16T12:59:52.894Z,7.27
2017-10-16T13:02:20.291Z,8.33
2017-10-16T13:04:51.075Z,8.07
2017-10-16T13:07:18.457Z,7.00
2017-10-16T13:09:45.854Z,8.30
2017-10-16T13:12:13.342Z,8.17
2017-10-16T13:14:40.735Z,8.20
2017-10-16T13:17:08.136Z,8.33
2017-10-16T13:19:35.546Z,7.30
2017-10-16T13:22:02.935Z,7.90
2017-10-16T13:24:30.331Z,7.13
2017-10-16T13:26:57.731Z,8.37
2017-10-16T13:29:25.174Z,8.00
2017-10-16T13:31:52.567Z,7.43
2017-10-16T13:34:19.959Z,7.83
2017-10-16T13:36:47.341Z,9.00
2017-10-16T13:39:14.756Z,8.07
2017-10-16T13:41:42.141Z,7.07
2017-10-16T13:44:09.535Z,7.03
2017-10-16T13:46:36.928Z,9.00
2017-10-16T13:49:04.327Z,8.10
2017-10-16T13:51:31.715Z,7.03
2017-10-16T13:53:59.107Z,8.17
2017-10-16T13:56:26.500Z,7.80
2017-10-16T13:58:53.907Z,7.47
2017-10-16T14:01:21.299Z,9.63
2017-10-16T14:03:48.714Z,9.10
2017-10-16T14:06:16.120Z,10.60
2017-10-16T14:08:43.510Z,9.83
2017-10-16T14:11:10.911Z,12.93
2017-10-16T14:13:38.316Z,13.80
2017-10-16T14:16:05.698Z,9.97
2017-10-16T14:18:33.095Z,8.20
2017-10-16T14:21:00.490Z,9.20
2017-10-16T14:23:28.692Z,9.23
2017-10-16T14:25:56.078Z,7.50
2017-10-16T14:28:23.495Z,7.90
2017-10-16T14:30:50.886Z,8.00
2017-10-16T14:33:18.287Z,7.80
2017-10-16T14:35:45.681Z,8.37
2017-10-16T14:38:13.067Z,7.80
2017-10-16T14:40:40.470Z,7.80
2017-10-16T14:43:07.863Z,7.40
2017-10-16T14:45:35.265Z,8.20
2017-10-16T14:48:02.647Z,7.57
2017-10-16T14:50:30.064Z,7.87
2017-10-16T14:52:57.447Z,7.70
2017-10-16T14:55:24.846Z,8.70
2017-10-16T14:57:52.243Z,8.10
2017-10-16T15:00:19.641Z,7.73
2017-10-16T15:02:47.032Z,8.00
2017-10-16T15:05:14.426Z,8.50
2017-10-16T15:07:41.817Z,7.90
2017-10-16T15:10:09.207Z,8.80
2017-10-16T15:12:36.707Z,8.40
2017-10-16T15:15:04.120Z,7.47
2017-10-16T15:17:31.614Z,8.80
2017-10-16T15:19:59.081Z,8.53
2017-10-16T15:22:26.539Z,8.90
2017-10-16T15:24:53.927Z,8.20
2017-10-16T15:27:21.331Z,7.70
2017-10-16T15:29:48.732Z,7.93
2017-10-16T15:32:16.143Z,7.37
2017-10-16T15:34:43.525Z,7.57
2017-10-16T15:37:10.914Z,8.30
2017-10-16T15:39:38.302Z,8.23
2017-10-16T15:42:05.701Z,8.53
2017-10-16T15:44:33.090Z,9.87
2017-10-16T15:47:00.598Z,8.50
2017-10-16T15:49:27.999Z,8.80
2017-10-16T15:51:55.393Z,9.60
2017-10-16T15:54:22.785Z,7.73
2017-10-16T15:56:50.175Z,8.67
2017-10-16T15:59:17.574Z,7.83
2017-10-16T16:01:44.977Z,9.70
2017-10-16T16:04:12.362Z,9.00
2017-10-16T16:06:39.843Z,8.40
2017-10-16T16:09:07.231Z,8.80
2017-10-16T16:11:34.631Z,9.33
2017-10-16T16:14:02.028Z,8.93
2017-10-16T16:16:29.435Z,9.93
2017-10-16T16:18:56.831Z,9.57
2017-10-16T16:21:24.290Z,10.83
2017-10-16T16:23:52.468Z,12.10
2017-10-16T16:26:19.852Z,11.63
2017-10-16T16:28:47.278Z,13.03
2017-10-16T16:31:14.667Z,13.03
2017-10-16T16:33:42.071Z,12.20
2017-10-16T16:36:09.462Z,13.63
2017-10-16T16:38:36.903Z,13.10
2017-10-16T16:41:04.291Z,12.27
2017-10-16T16:43:31.694Z,11.40
2017-10-16T16:45:59.092Z,11.40
2017-10-16T16:48:26.490Z,10.83
2017-10-16T16:50:53.894Z,10.50
2017-10-16T16:53:21.302Z,11.03
2017-10-16T16:55:48.695Z,11.17
2017-10-16T16:58:16.095Z,10.90
2017-10-16T17:00:43.490Z,12.30
2017-10-16T17:03:10.900Z,11.50
2017-10-16T17:05:38.321Z,13.30
2017-10-16T17:08:05.772Z,12.00
2017-10-16T17:10:33.171Z,10.23
2017-10-16T17:13:00.554Z,10.87
2017-10-16T17:15:28.035Z,15.27
2017-10-16T17:17:55.508Z,11.47
2017-10-16T17:20:22.911Z,12.40
2017-10-16T17:22:50.329Z,13.07
2017-10-16T17:25:17.719Z,13.10
2017-10-16T17:27:45.115Z,12.67
2017-10-16T17:30:12.522Z,10.90
2017-10-16T17:32:39.910Z,12.07
2017-10-16T17:35:07.316Z,11.97
2017-10-16T17:37:34.714Z,11.23
2017-10-16T17:40:02.126Z,11.30
2017-10-16T17:42:29.557Z,11.83
2017-10-16T17:44:56.967Z,12.30
2017-10-16T17:47:24.475Z,12.20
2017-10-16T17:49:51.865Z,12.27
2017-10-16T17:52:19.276Z,12.30
2017-10-16T17:54:46.666Z,12.60
2017-10-16T17:57:14.077Z,11.30
2017-10-16T17:59:41.481Z,12.27
2017-10-16T18:02:08.913Z,11.33
2017-10-16T18:04:36.383Z,12.00
2017-10-16T18:07:03.780Z,12.50
2017-10-16T18:09:31.179Z,13.00
2017-10-16T18:11:58.578Z,13.33
2017-10-16T18:14:25.997Z,14.90
2017-10-16T18:16:53.403Z,14.53
2017-10-16T18:19:20.790Z,13.80
2017-10-16T18:21:48.186Z,12.87
2017-10-16T18:24:15.582Z,12.83
2017-10-16T18:26:42.986Z,13.20
2017-10-16T18:29:10.384Z,12.70
2017-10-16T18:31:37.796Z,11.73
2017-10-16T18:34:05.226Z,13.17
2017-10-16T18:36:32.634Z,13.07
2017-10-16T18:39:00.022Z,12.50
2017-10-16T18:41:27.515Z,12.90
2017-10-16T18:43:54.966Z,13.07
2017-10-16T18:46:22.398Z,12.43
2017-10-16T18:48:49.760Z,13.73
2017-10-16T18:51:17.195Z,13.20
2017-10-16T18:53:44.786Z,12.30
2017-10-16T18:56:12.182Z,12.67
2017-10-16T18:58:39.595Z,13.77
2017-10-16T19:01:06.994Z,12.10
2017-10-16T19:03:34.398Z,12.63
2017-10-16T19:06:01.791Z,13.13
2017-10-16T19:08:29.224Z,15.53
2017-10-16T19:10:56.624Z,13.30
2017-10-16T19:13:24.026Z,13.13
2017-10-16T19:15:51.499Z,14.03
2017-10-16T19:18:18.952Z,12.80
2017-10-16T19:20:46.338Z,13.53
2017-10-16T19:23:13.751Z,12.37
2017-10-16T19:25:41.150Z,13.30
2017-10-16T19:28:08.582Z,13.83
2017-10-16T19:30:36.036Z,13.77
2017-10-16T19:33:03.432Z,12.77
2017-10-16T19:35:30.834Z,12.67
2017-10-16T19:37:58.269Z,13.07
2017-10-16T19:40:25.668Z,13.13
2017-10-16T19:42:53.067Z,13.40
2017-10-16T19:45:20.570Z,13.43
2017-10-16T19:47:48.053Z,13.40
2017-10-16T19:50:15.438Z,14.07
2017-10-16T19:52:42.938Z,12.90
2017-10-16T19:55:10.363Z,13.73
2017-10-16T19:57:37.765Z,13.27
2017-10-16T20:00:05.211Z,13.40
2017-10-16T20:02:32.662Z,14.87
2017-10-16T20:05:00.105Z,14.20
2017-10-16T20:07:27.478Z,13.60
2017-10-16T20:09:54.878Z,14.67
2017-10-16T20:12:22.290Z,13.87
2017-10-16T20:14:49.690Z,12.73
2017-10-16T20:17:17.088Z,14.13
2017-10-16T20:19:44.486Z,12.80
2017-10-16T20:22:11.911Z,13.20
2017-10-16T20:24:39.319Z,12.47
2017-10-16T20:27:06.835Z,13.00
2017-10-16T20:29:34.226Z,12.87
2017-10-16T20:32:01.740Z,14.13
2017-10-16T20:34:29.127Z,13.40
2017-10-16T20:36:56.538Z,14.20
2017-10-16T20:39:23.935Z,13.70
2017-10-16T20:41:51.335Z,13.23
2017-10-16T20:44:18.734Z,13.00
2017-10-16T20:46:46.141Z,12.40
2017-10-16T20:49:13.574Z,13.33
2017-10-16T20:51:40.975Z,14.13
2017-10-16T20:54:08.362Z,12.73
2017-10-16T20:56:35.771Z,12.77
2017-10-16T20:59:03.170Z,13.30
2017-10-16T21:01:30.568Z,12.53
2017-10-16T21:03:58.066Z,13.27
2017-10-16T21:06:25.474Z,13.27
2017-10-16T21:08:52.879Z,13.43
2017-10-16T21:11:20.311Z,14.47
2017-10-16T21:13:47.708Z,13.27
2017-10-16T21:16:15.102Z,12.60
2017-10-16T21:18:42.507Z,13.43
2017-10-16T21:21:09.904Z,12.50
2017-10-16T21:23:37.306Z,11.97
2017-10-16T21:26:04.703Z,11.83
2017-10-16T21:28:32.109Z,12.00
2017-10-16T21:30:59.599Z,12.40
2017-10-16T21:33:26.985Z,13.70
2017-10-16T21:35:54.380Z,12.87
2017-10-16T21:38:21.769Z,11.57
2017-10-16T21:40:49.167Z,11.67
2017-10-16T21:43:16.564Z,13.03
2017-10-16T21:45:43.958Z,12.10
2017-10-16T21:48:11.354Z,12.90
2017-10-16T21:50:38.746Z,12.70
2017-10-16T21:53:06.146Z,12.40
2017-10-16T21:55:33.539Z,12.67
2017-10-16T21:58:00.985Z,12.70
2017-10-16T22:00:28.390Z,12.00
2017-10-16T22:02:55.815Z,12.40
2017-10-16T22:05:23.214Z,12.80
2017-10-16T22:07:50.727Z,13.77
2017-10-16T22:10:18.163Z,13.90
2017-10-16T22:15:23.579Z,13.27
2017-10-16T22:17:51.010Z,13.30
2017-10-16T22:20:18.402Z,12.73
2017-10-16T22:22:45.802Z,13.87
2017-10-16T22:25:13.202Z,12.93
2017-10-16T22:27:40.599Z,14.00
2017-10-16T22:30:08.009Z,14.67
2017-10-16T22:32:35.398Z,12.70
2017-10-16T22:35:02.804Z,14.50
2017-10-16T22:37:30.206Z,13.63
2017-10-16T22:39:57.611Z,12.07
2017-10-16T22:42:25.010Z,13.13
2017-10-16T22:44:52.411Z,12.60
2017-10-16T22:47:32.231Z,12.90
2017-10-16T22:49:59.622Z,12.30
2017-10-16T22:52:27.027Z,12.20
2017-10-16T22:54:54.414Z,11.50
2017-10-16T22:57:21.807Z,12.07
2017-10-16T22:59:49.210Z,11.60
2017-10-16T23:02:16.693Z,11.87
2017-10-16T23:04:44.112Z,10.40
2017-10-16T23:07:11.499Z,11.57
2017-10-16T23:09:38.900Z,12.03
2017-10-16T23:12:06.303Z,11.00
2017-10-16T23:14:33.705Z,11.67
2017-10-16T23:17:01.103Z,10.83
2017-10-16T23:19:28.507Z,12.00
2017-10-16T23:21:55.898Z,11.17
2017-10-16T23:24:23.304Z,12.83
2017-10-16T23:26:50.704Z,11.37
2017-10-16T23:29:18.099Z,11.97
2017-10-16T23:31:45.504Z,12.73
2017-10-16T23:34:13.011Z,12.73
2017-10-16T23:36:40.429Z,12.00
2017-10-16T23:39:07.824Z,12.60
2017-10-16T23:41:35.384Z,12.70
2017-10-16T23:44:02.779Z,13.60
2017-10-16T23:46:30.183Z,12.00
2017-10-16T23:48:57.581Z,12.37
2017-10-16T23:51:24.988Z,12.90
2017-10-16T23:53:52.379Z,10.90
2017-10-16T23:56:19.787Z,11.70
2017-10-16T23:58:47.191Z,10.80
